createdAt,value
2023-12-03T14:38:24.215Z,29.8
2023-12-03T14:40:24.232Z,26.7
2023-12-03T14:42:24.238Z,27.9
2023-12-03T14:44:24.229Z,30.2
2023-12-03T14:46:24.252Z,30.6
2023-12-03T14:48:24.328Z,34.1
2023-12-03T14:52:24.266Z,33.9
2023-12-03T14:54:24.301Z,35.7
2023-12-03T15:00:24.271Z,34.8
2023-12-03T15:04:24.230Z,36.5
2023-12-03T15:06:24.268Z,38.9
2023-12-03T15:12:24.411Z,37.6
2023-12-03T15:14:24.219Z,37.4
2023-12-03T15:18:24.332Z,35.5
2023-12-03T15:20:24.341Z,36.6
2023-12-03T15:22:24.281Z,39.4
2023-12-03T15:24:24.275Z,37.0
2023-12-03T15:26:24.233Z,37.6
2023-12-03T15:28:24.445Z,37.2
2023-12-03T15:32:24.284Z,37.1
2023-12-03T15:34:24.263Z,39.1
2023-12-03T15:40:24.286Z,38.3
2023-12-03T15:42:24.308Z,37.3
2023-12-03T15:44:24.282Z,36.3
2023-12-03T15:46:24.245Z,36.0
2023-12-03T15:48:24.359Z,39.7
2023-12-03T15:52:24.263Z,35.2
2023-12-03T15:54:24.275Z,37.3
2023-12-03T15:56:24.265Z,36.4
2023-12-03T15:58:24.246Z,40.5
2023-12-03T16:00:24.288Z,38.1
2023-12-03T16:04:24.327Z,36.1
2023-12-03T16:12:24.331Z,35.6
2023-12-03T16:14:24.295Z,36.5
2023-12-03T16:22:24.284Z,35.2
2023-12-03T16:28:24.294Z,35.5
2023-12-03T16:32:24.350Z,35.6
2023-12-03T16:36:24.290Z,34.9
2023-12-03T16:42:24.309Z,35.8
2023-12-03T16:44:24.324Z,35.7
2023-12-03T16:46:24.281Z,39.4
2023-12-03T16:48:24.481Z,39.2
2023-12-03T16:56:24.293Z,37.9
2023-12-03T16:58:24.301Z,35.1
2023-12-03T17:00:24.339Z,39.3
2023-12-03T17:08:24.322Z,41.4
2023-12-03T17:16:24.328Z,35.6
2023-12-03T17:18:24.404Z,35.4
2023-12-03T17:20:24.298Z,38.3
2023-12-03T17:22:24.340Z,35.6
2023-12-03T17:30:24.417Z,40.3
2023-12-03T17:34:24.366Z,38.6
2023-12-03T17:40:24.423Z,35.3
2023-12-03T17:42:24.353Z,39.2
2023-12-03T17:44:24.335Z,38.1
2023-12-03T17:52:24.355Z,35.8
2023-12-03T17:54:24.420Z,35.9
2023-12-03T17:56:24.340Z,37.6
2023-12-03T17:58:24.357Z,39.4
2023-12-03T18:02:24.377Z,41.9
2023-12-03T18:06:24.365Z,41.5
2023-12-03T18:10:24.354Z,40.1
2023-12-03T18:12:24.390Z,41.0
2023-12-03T18:14:24.319Z,38.2
2023-12-03T18:16:24.328Z,41.2
2023-12-03T18:18:24.464Z,44.1
2023-12-03T18:20:24.326Z,37.3
2023-12-03T18:22:24.357Z,39.7
2023-12-03T18:24:24.392Z,39.9
2023-12-03T18:26:24.331Z,42.2
2023-12-03T18:28:24.367Z,41.7
2023-12-03T18:30:24.402Z,39.9
2023-12-03T18:32:24.448Z,41.4
2023-12-03T18:34:24.387Z,38.9
2023-12-03T18:36:24.381Z,39.9
2023-12-03T18:40:24.442Z,39.7
2023-12-03T18:42:24.405Z,43.8
2023-12-03T18:44:24.351Z,50.7
2023-12-03T18:46:24.337Z,52.4
2023-12-03T18:48:24.506Z,46.4
2023-12-03T18:50:24.360Z,42.7
2023-12-03T18:52:24.372Z,44.0
2023-12-03T18:54:24.383Z,40.2
2023-12-03T18:56:24.379Z,40.4
2023-12-03T18:58:24.382Z,40.6
2023-12-03T19:00:24.813Z,42.3
2023-12-03T19:02:24.387Z,40.6
2023-12-03T19:04:24.494Z,46.6
2023-12-03T19:06:24.510Z,42.1
2023-12-03T19:08:25.010Z,37.8
2023-12-03T19:10:24.398Z,43.2
2023-12-03T19:12:24.394Z,49.0
2023-12-03T19:14:24.440Z,66.4
2023-12-03T19:16:24.389Z,63.4
2023-12-03T19:18:24.453Z,49.4
2023-12-03T19:20:24.383Z,63.6
2023-12-03T19:22:24.371Z,74.2
2023-12-03T19:26:24.392Z,61.7
2023-12-03T19:28:24.939Z,73.7
2023-12-03T19:30:24.438Z,60.9
2023-12-03T19:32:24.461Z,60.0
2023-12-03T19:34:24.452Z,66.9
2023-12-03T19:36:24.397Z,75.4
2023-12-03T19:38:24.403Z,90.4
2023-12-03T19:42:24.631Z,80.0
2023-12-03T19:44:24.412Z,62.9
2023-12-03T19:46:24.395Z,66.2
2023-12-03T19:48:24.549Z,73.7
2023-12-03T19:50:24.389Z,81.6
2023-12-03T19:52:24.423Z,91.8
2023-12-03T19:54:24.410Z,65.4
2023-12-03T19:56:24.406Z,59.9
2023-12-03T19:58:24.505Z,58.5
2023-12-03T20:00:24.434Z,56.3
2023-12-03T20:02:24.405Z,52.0
2023-12-03T20:04:24.526Z,49.6
2023-12-03T20:06:24.389Z,53.5
2023-12-03T20:08:24.422Z,49.1
2023-12-03T20:10:24.417Z,56.0
2023-12-03T20:12:24.420Z,67.6
2023-12-03T20:14:25.309Z,59.2
2023-12-03T20:16:24.435Z,47.3
2023-12-03T20:18:24.427Z,46.8
2023-12-03T20:20:24.474Z,51.4
2023-12-03T20:24:24.400Z,55.5
2023-12-03T20:26:24.474Z,56.2
2023-12-03T20:28:24.414Z,53.2
2023-12-03T20:30:24.410Z,46.5
2023-12-03T20:32:24.451Z,51.2
2023-12-03T20:34:24.460Z,46.8
2023-12-03T20:36:24.432Z,46.3
2023-12-03T20:38:24.447Z,47.4
2023-12-03T20:44:24.439Z,46.0
2023-12-03T20:46:24.411Z,44.1
2023-12-03T20:48:24.422Z,46.0
2023-12-03T20:50:24.443Z,46.6
2023-12-03T20:54:24.445Z,39.8
2023-12-03T20:58:24.435Z,40.0
2023-12-03T21:00:24.430Z,41.8
2023-12-03T21:02:24.447Z,39.0
2023-12-03T21:04:24.513Z,42.4
2023-12-03T21:06:24.451Z,38.9
2023-12-03T21:10:24.444Z,41.2
2023-12-03T21:12:24.462Z,40.3
2023-12-03T21:14:24.432Z,36.3
2023-12-03T21:16:24.467Z,39.7
2023-12-03T21:18:24.467Z,36.6
2023-12-03T21:20:24.487Z,39.6
2023-12-03T21:22:24.474Z,40.5
2023-12-03T21:24:24.467Z,36.8
2023-12-03T21:26:24.443Z,36.4
2023-12-03T21:30:24.451Z,39.7
2023-12-03T21:32:24.467Z,36.2
2023-12-03T21:36:24.474Z,35.4
2023-12-03T21:42:24.484Z,34.2
2023-12-03T21:44:24.503Z,35.4
2023-12-03T21:46:24.484Z,36.9
2023-12-03T21:51:34.125Z,25.0
2023-12-03T21:53:34.023Z,20.7
2023-12-03T21:55:34.049Z,24.1
2023-12-03T21:57:34.116Z,21.6
2023-12-03T21:59:34.050Z,22.5
2023-12-03T22:01:34.039Z,23.6
2023-12-03T22:03:34.205Z,23.3
2023-12-03T22:05:34.051Z,23.3
2023-12-03T22:07:34.074Z,25.1
2023-12-03T22:09:34.080Z,23.7
2023-12-03T22:11:34.063Z,25.6
2023-12-03T22:13:34.057Z,27.1
2023-12-03T22:15:34.109Z,24.5
2023-12-03T22:17:34.047Z,25.8
2023-12-03T22:19:34.227Z,30.8
2023-12-03T22:21:34.135Z,28.2
2023-12-03T22:23:34.064Z,27.9
2023-12-03T22:25:34.085Z,28.1
2023-12-03T22:27:34.164Z,27.7
2023-12-03T22:29:44.558Z,26.3
2023-12-03T22:31:34.047Z,24.6
2023-12-03T22:39:34.134Z,24.8
2023-12-03T22:41:34.064Z,28.1
2023-12-03T22:43:34.072Z,28.2
2023-12-03T22:49:34.103Z,26.8
2023-12-03T22:51:34.102Z,27.2
2023-12-03T22:55:34.115Z,30.7
2023-12-03T22:59:34.075Z,27.2
2023-12-03T23:01:34.138Z,29.5
2023-12-03T23:07:34.109Z,24.3
2023-12-03T23:09:36.474Z,25.7
2023-12-03T23:13:34.111Z,28.2
2023-12-03T23:15:34.122Z,27.2
2023-12-03T23:17:34.144Z,29.7
2023-12-03T23:19:34.201Z,28.2
2023-12-03T23:23:34.107Z,27.0
2023-12-03T23:27:34.165Z,25.4
2023-12-03T23:31:34.118Z,29.5
2023-12-03T23:33:34.333Z,26.3
2023-12-03T23:35:34.085Z,27.3
2023-12-03T23:37:34.084Z,24.8
2023-12-03T23:45:34.155Z,26.5
2023-12-03T23:47:34.230Z,23.8
2023-12-03T23:57:34.156Z,26.9
